createdAt,value
2022-09-09T00:00:56.262Z,5.50
2022-09-09T00:03:33.318Z,5.50
2022-09-09T00:06:19.744Z,6.30
2022-09-09T00:09:01.489Z,6.40
2022-09-09T00:11:42.456Z,6.40
2022-09-09T00:14:20.566Z,6.40
2022-09-09T00:16:57.142Z,5.80
2022-09-09T00:19:36.710Z,6.40
2022-09-09T00:22:17.507Z,6.80
2022-09-09T00:24:51.444Z,6.40
2022-09-09T00:27:31.483Z,6.30
2022-09-09T00:30:14.907Z,6.20
2022-09-09T00:32:47.736Z,7.20
2022-09-09T00:35:25.021Z,8.10
2022-09-09T00:37:58.944Z,6.60
2022-09-09T00:40:34.340Z,7.30
2022-09-09T00:43:23.396Z,7.10
2022-09-09T00:46:10.856Z,6.50
2022-09-09T00:48:54.200Z,7.00
2022-09-09T00:51:37.446Z,6.60
2022-09-09T00:54:30.499Z,8.10
2022-09-09T00:57:15.295Z,7.80
2022-09-09T00:59:52.654Z,6.90
2022-09-09T01:02:31.429Z,7.50
2022-09-09T01:05:09.619Z,7.20
2022-09-09T01:07:42.561Z,7.50
2022-09-09T01:10:23.320Z,8.20
2022-09-09T01:12:58.958Z,7.30
2022-09-09T01:15:34.271Z,7.30
2022-09-09T01:18:11.135Z,7.50
2022-09-09T01:20:57.763Z,7.90
2022-09-09T01:23:50.169Z,7.80
2022-09-09T01:26:31.289Z,7.90
2022-09-09T01:29:09.116Z,7.90
2022-09-09T01:31:44.454Z,7.70
2022-09-09T01:34:17.471Z,7.00
2022-09-09T01:36:55.547Z,7.50
2022-09-09T01:39:26.651Z,7.40
2022-09-09T01:42:10.081Z,7.80
2022-09-09T01:44:41.818Z,7.90
2022-09-09T01:47:13.474Z,8.10
2022-09-09T01:49:58.365Z,7.60
2022-09-09T01:52:32.229Z,8.60
2022-09-09T01:55:03.890Z,8.00
2022-09-09T01:57:47.620Z,7.40
2022-09-09T02:00:19.334Z,7.70
2022-09-09T02:03:02.774Z,8.30
2022-09-09T02:05:43.036Z,7.40
2022-09-09T02:08:28.777Z,8.20
2022-09-09T02:11:11.180Z,8.40
2022-09-09T02:14:14.257Z,7.70
2022-09-09T02:16:54.836Z,8.40
2022-09-09T02:19:31.924Z,9.20
2022-09-09T02:22:08.214Z,8.60
2022-09-09T02:24:41.827Z,8.10
2022-09-09T02:27:21.007Z,7.80
2022-09-09T02:29:54.050Z,8.60
2022-09-09T02:32:37.768Z,9.60
2022-09-09T02:35:14.386Z,9.00
2022-09-09T02:37:48.105Z,8.60
2022-09-09T02:40:19.974Z,8.30
2022-09-09T02:42:53.721Z,9.90
2022-09-09T02:45:33.222Z,8.70
2022-09-09T02:48:12.124Z,8.70
2022-09-09T02:50:51.644Z,8.60
2022-09-09T02:53:26.772Z,8.80
2022-09-09T02:56:02.269Z,9.30
2022-09-09T02:58:36.700Z,9.00
2022-09-09T03:01:09.937Z,9.70
2022-09-09T03:03:42.520Z,9.00
2022-09-09T03:06:16.852Z,8.70
2022-09-09T03:08:51.052Z,9.20
2022-09-09T03:11:26.132Z,8.30
2022-09-09T03:13:58.099Z,9.30
2022-09-09T03:16:30.060Z,9.40
2022-09-09T03:19:01.509Z,9.20
2022-09-09T03:21:33.242Z,9.20
2022-09-09T03:24:05.418Z,9.80
2022-09-09T03:26:36.606Z,8.50
2022-09-09T03:29:08.535Z,8.40
2022-09-09T03:31:39.939Z,9.00
2022-09-09T03:34:11.351Z,8.60
2022-09-09T03:36:42.603Z,8.50
2022-09-09T03:39:14.006Z,8.00
2022-09-09T03:41:48.338Z,8.00
2022-09-09T03:44:19.636Z,7.50
2022-09-09T03:46:51.252Z,8.30
2022-09-09T03:49:23.460Z,8.00
2022-09-09T03:51:54.974Z,7.30
2022-09-09T03:54:26.608Z,8.10
2022-09-09T03:56:57.480Z,7.90
2022-09-09T03:59:28.370Z,8.70
2022-09-09T04:02:00.281Z,8.10
2022-09-09T04:04:31.580Z,7.90
2022-09-09T04:07:03.330Z,6.90
2022-09-09T04:09:34.342Z,7.50
2022-09-09T04:12:07.732Z,7.10
2022-09-09T04:14:39.010Z,6.80
2022-09-09T04:17:10.341Z,7.00
2022-09-09T04:19:43.405Z,7.30
2022-09-09T04:22:14.682Z,6.80
2022-09-09T04:24:48.651Z,7.30
2022-09-09T04:27:21.086Z,5.80
2022-09-09T04:29:52.156Z,7.70
2022-09-09T04:32:23.112Z,6.90
2022-09-09T04:34:54.702Z,6.40
2022-09-09T04:37:26.827Z,5.80
2022-09-09T04:39:58.285Z,6.40
2022-09-09T04:42:29.835Z,6.40
2022-09-09T04:45:00.820Z,6.00
2022-09-09T04:47:31.691Z,6.50
2022-09-09T04:50:06.306Z,5.50
2022-09-09T04:52:39.314Z,5.70
2022-09-09T04:55:13.912Z,5.30
2022-09-09T04:57:45.802Z,5.70
2022-09-09T05:00:19.952Z,6.90
2022-09-09T05:02:52.195Z,5.70
2022-09-09T05:05:27.361Z,6.00
2022-09-09T05:10:28.648Z,5.80
2022-09-09T05:13:00.165Z,6.10
2022-09-09T05:15:32.934Z,6.20
2022-09-09T05:18:05.613Z,5.90
2022-09-09T05:20:37.672Z,6.00
2022-09-09T05:23:10.916Z,5.90
2022-09-09T05:25:42.747Z,5.40
2022-09-09T05:28:13.537Z,5.60
2022-09-09T05:30:45.460Z,5.60
2022-09-09T05:33:18.404Z,5.30
2022-09-09T05:35:50.096Z,5.20
2022-09-09T05:38:23.822Z,5.80
2022-09-09T05:40:58.795Z,11.10
2022-09-09T05:43:30.796Z,6.20
2022-09-09T05:46:06.590Z,13.40
2022-09-09T05:48:42.620Z,7.60
2022-09-09T05:51:16.788Z,7.10
2022-09-09T05:53:50.297Z,6.10
2022-09-09T05:56:23.457Z,5.20
2022-09-09T05:58:56.216Z,6.70
2022-09-09T06:01:29.796Z,5.60
2022-09-09T06:04:02.138Z,6.50
2022-09-09T06:06:37.797Z,5.90
2022-09-09T06:09:12.578Z,5.40
2022-09-09T06:11:46.908Z,4.30
2022-09-09T06:14:19.027Z,5.60
2022-09-09T06:16:53.653Z,5.20
2022-09-09T06:19:29.137Z,4.70
2022-09-09T06:22:01.697Z,5.00
2022-09-09T06:24:34.440Z,6.10
2022-09-09T06:27:08.361Z,4.60
2022-09-09T06:29:39.697Z,4.60
2022-09-09T06:32:11.092Z,5.30
2022-09-09T06:34:42.238Z,4.80
2022-09-09T06:37:13.999Z,5.40
2022-09-09T06:39:50.673Z,5.60
2022-09-09T06:42:21.732Z,5.30
2022-09-09T06:45:13.049Z,6.00
2022-09-09T06:47:50.791Z,5.40
2022-09-09T06:50:23.729Z,5.70
2022-09-09T06:52:55.055Z,5.30
2022-09-09T06:55:26.571Z,6.00
2022-09-09T06:57:58.283Z,5.70
2022-09-09T07:00:29.668Z,5.10
2022-09-09T07:03:02.189Z,6.00
2022-09-09T07:05:34.214Z,6.10
2022-09-09T07:08:06.057Z,7.10
2022-09-09T07:10:40.103Z,5.80
2022-09-09T07:13:11.190Z,7.30
2022-09-09T07:15:46.448Z,6.70
2022-09-09T07:20:57.196Z,5.80
2022-09-09T07:23:33.096Z,7.60
2022-09-09T07:26:14.633Z,8.20
2022-09-09T07:28:46.396Z,7.00
2022-09-09T07:31:23.441Z,7.60
2022-09-09T07:33:54.608Z,7.60
2022-09-09T07:36:32.558Z,7.40
2022-09-09T07:39:09.695Z,7.70
2022-09-09T07:41:42.698Z,8.50
2022-09-09T07:44:16.118Z,8.10
2022-09-09T07:46:48.764Z,9.50
2022-09-09T07:49:29.735Z,8.80
2022-09-09T07:52:04.729Z,8.30
2022-09-09T07:54:36.605Z,9.70
2022-09-09T07:57:09.979Z,8.40
2022-09-09T07:59:42.787Z,8.90
2022-09-09T08:02:13.976Z,9.00
2022-09-09T08:04:46.502Z,8.90
2022-09-09T08:07:20.081Z,8.20
2022-09-09T08:09:56.806Z,8.90
2022-09-09T08:12:31.819Z,9.40
2022-09-09T08:15:03.204Z,10.00
2022-09-09T08:17:35.503Z,9.40
2022-09-09T08:20:10.152Z,12.00
2022-09-09T08:22:41.247Z,8.50
2022-09-09T08:25:13.208Z,9.50
2022-09-09T08:27:44.506Z,10.10
2022-09-09T08:30:20.648Z,9.60
2022-09-09T08:32:53.956Z,9.00
2022-09-09T08:35:25.995Z,10.50
2022-09-09T08:38:00.458Z,10.20
2022-09-09T08:40:41.243Z,22.60
2022-09-09T08:43:12.414Z,9.10
2022-09-09T08:46:01.271Z,11.20
2022-09-09T08:48:47.662Z,12.60
2022-09-09T08:51:19.016Z,10.30
2022-09-09T08:53:59.045Z,9.90
2022-09-09T08:56:33.411Z,11.10
2022-09-09T08:59:06.298Z,11.70
2022-09-09T09:01:51.099Z,11.00
2022-09-09T09:04:53.142Z,11.60
2022-09-09T09:07:39.202Z,11.20
2022-09-09T09:10:40.640Z,11.80
2022-09-09T09:13:18.121Z,11.70
2022-09-09T09:15:54.862Z,14.00
2022-09-09T09:18:26.254Z,13.30
2022-09-09T09:21:06.361Z,10.80
2022-09-09T09:23:45.012Z,12.50
2022-09-09T09:26:17.225Z,12.60
2022-09-09T09:28:49.447Z,12.30
2022-09-09T09:31:28.094Z,12.10
2022-09-09T09:34:00.409Z,11.30
2022-09-09T09:36:42.503Z,12.50
2022-09-09T09:42:23.111Z,13.00
2022-09-09T09:44:55.899Z,12.90
2022-09-09T09:47:28.069Z,13.60
2022-09-09T09:50:23.372Z,13.80
2022-09-09T09:53:00.477Z,14.40
2022-09-09T09:55:34.647Z,14.10
2022-09-09T09:58:18.637Z,14.20
2022-09-09T10:00:55.187Z,12.80
2022-09-09T10:03:31.720Z,14.50
2022-09-09T10:06:03.071Z,14.90
2022-09-09T10:08:47.619Z,14.20
2022-09-09T10:11:37.621Z,13.90
2022-09-09T10:14:19.612Z,16.10
2022-09-09T10:17:02.789Z,14.80
2022-09-09T10:19:37.429Z,14.60
2022-09-09T10:22:19.687Z,16.00
2022-09-09T10:25:14.378Z,15.60
2022-09-09T10:28:05.908Z,15.90
2022-09-09T10:30:49.963Z,13.30
2022-09-09T10:33:32.805Z,14.70
2022-09-09T10:36:14.762Z,16.40
2022-09-09T10:38:47.687Z,16.60
2022-09-09T10:41:26.459Z,17.60
2022-09-09T10:44:20.238Z,17.30
2022-09-09T10:47:08.220Z,16.70
2022-09-09T10:50:00.137Z,17.20
2022-09-09T10:52:43.097Z,16.30
2022-09-09T10:55:19.639Z,18.10
2022-09-09T10:57:53.317Z,17.40
2022-09-09T11:00:26.142Z,16.60
2022-09-09T11:03:01.368Z,15.30
2022-09-09T11:08:13.243Z,19.50
2022-09-09T11:10:49.858Z,19.20
2022-09-09T11:13:27.139Z,19.00
2022-09-09T11:16:03.926Z,31.60
2022-09-09T11:18:38.542Z,20.30
2022-09-09T11:21:18.481Z,21.10
2022-09-09T11:23:55.963Z,21.20
2022-09-09T11:26:38.224Z,21.60
2022-09-09T11:29:39.561Z,21.70
2022-09-09T11:32:31.375Z,20.60
2022-09-09T11:35:14.305Z,16.70
2022-09-09T11:38:07.210Z,19.80
2022-09-09T11:40:38.129Z,23.50
2022-09-09T11:43:14.630Z,23.30
2022-09-09T11:45:57.336Z,22.90
2022-09-09T11:48:35.652Z,22.90
2022-09-09T11:51:17.076Z,27.20
2022-09-09T11:53:56.471Z,22.60
2022-09-09T11:56:33.274Z,22.50
2022-09-09T11:59:06.756Z,23.80
2022-09-09T12:01:44.017Z,23.00
2022-09-09T12:04:30.184Z,23.90
2022-09-09T12:07:04.958Z,24.00
2022-09-09T12:09:49.536Z,24.30
2022-09-09T12:12:32.806Z,23.30
2022-09-09T12:15:21.890Z,22.80
2022-09-09T12:17:54.588Z,22.50
2022-09-09T12:20:33.027Z,21.80
2022-09-09T12:23:23.420Z,24.30
2022-09-09T12:26:03.931Z,24.00
2022-09-09T12:28:47.866Z,23.10
2022-09-09T12:31:23.834Z,24.50
2022-09-09T12:33:54.929Z,22.90
2022-09-09T12:36:31.439Z,23.30
2022-09-09T12:39:20.160Z,23.10
2022-09-09T12:41:58.544Z,25.00
2022-09-09T12:44:30.185Z,23.20
2022-09-09T12:47:04.322Z,25.50
2022-09-09T12:49:39.446Z,25.10
2022-09-09T12:54:48.958Z,23.30
2022-09-09T12:57:19.871Z,24.80
2022-09-09T12:59:50.709Z,24.50
2022-09-09T13:02:24.821Z,23.80
2022-09-09T13:04:57.154Z,25.90
2022-09-09T13:07:28.028Z,25.10
2022-09-09T13:09:59.526Z,25.20
2022-09-09T13:12:30.581Z,26.10
2022-09-09T13:15:02.946Z,25.00
2022-09-09T13:17:34.196Z,25.40
2022-09-09T13:20:05.652Z,26.30
2022-09-09T13:22:39.861Z,22.50
2022-09-09T13:25:22.983Z,26.40
2022-09-09T13:28:00.134Z,26.90
2022-09-09T13:30:37.372Z,25.80
2022-09-09T13:33:25.420Z,26.70
2022-09-09T13:35:58.791Z,26.10
2022-09-09T13:38:33.299Z,27.80
2022-09-09T13:41:05.972Z,24.70
2022-09-09T13:43:40.783Z,26.80
2022-09-09T13:46:31.284Z,25.90
2022-09-09T13:49:04.560Z,25.20
2022-09-09T13:51:40.450Z,27.70
2022-09-09T13:54:13.857Z,22.90
2022-09-09T13:56:46.108Z,24.70
2022-09-09T13:59:20.843Z,26.70
2022-09-09T14:01:53.382Z,27.50
2022-09-09T14:04:24.376Z,25.20
2022-09-09T14:06:55.571Z,25.80
2022-09-09T14:09:26.604Z,27.00
2022-09-09T14:11:57.612Z,26.90
2022-09-09T14:14:29.181Z,26.10
2022-09-09T14:17:05.160Z,26.00
2022-09-09T14:19:39.197Z,26.20
2022-09-09T14:22:10.545Z,26.20
2022-09-09T14:24:42.210Z,25.70
2022-09-09T14:27:13.653Z,24.40
2022-09-09T14:29:45.760Z,24.10
2022-09-09T14:32:16.785Z,22.90
2022-09-09T14:34:50.650Z,22.50
2022-09-09T14:37:22.134Z,23.00
2022-09-09T14:39:53.316Z,24.20
2022-09-09T14:42:24.571Z,22.70
2022-09-09T14:44:55.622Z,21.60
2022-09-09T14:47:27.224Z,22.50
2022-09-09T14:49:58.194Z,21.90
2022-09-09T14:52:30.450Z,22.60
2022-09-09T14:55:01.348Z,22.10
2022-09-09T14:57:33.203Z,22.00
2022-09-09T15:00:05.613Z,22.90
2022-09-09T15:02:36.697Z,21.90
2022-09-09T15:05:09.336Z,23.10
2022-09-09T15:07:40.317Z,23.00
2022-09-09T15:10:12.305Z,22.60
2022-09-09T15:12:43.906Z,22.70
2022-09-09T15:15:14.983Z,23.90
2022-09-09T15:17:45.841Z,24.10
2022-09-09T15:20:17.817Z,24.00
2022-09-09T15:22:53.271Z,23.60
2022-09-09T15:25:24.224Z,25.50
2022-09-09T15:27:55.081Z,25.30
2022-09-09T15:30:26.298Z,26.50
2022-09-09T15:32:57.721Z,24.80
2022-09-09T15:35:28.925Z,26.30
2022-09-09T15:38:00.063Z,22.70
2022-09-09T15:40:33.333Z,24.20
2022-09-09T15:43:06.709Z,24.30
2022-09-09T15:45:37.741Z,25.10
2022-09-09T15:48:08.687Z,26.30
2022-09-09T15:50:40.625Z,23.60
2022-09-09T15:53:12.534Z,25.30
2022-09-09T15:55:43.578Z,25.80
2022-09-09T15:58:15.024Z,23.10
2022-09-09T16:00:46.780Z,23.90
2022-09-09T16:03:20.662Z,24.40
2022-09-09T16:05:56.838Z,24.30
2022-09-09T16:08:33.666Z,25.10
2022-09-09T16:11:12.256Z,23.90
2022-09-09T16:13:46.795Z,23.80
2022-09-09T16:16:24.248Z,24.30
2022-09-09T16:18:56.834Z,23.20
2022-09-09T16:21:31.085Z,23.30
2022-09-09T16:24:04.955Z,23.20
2022-09-09T16:26:38.215Z,22.80
2022-09-09T16:29:10.839Z,22.30
2022-09-09T16:31:43.380Z,24.10
2022-09-09T16:34:15.076Z,22.20
2022-09-09T16:36:46.732Z,21.00
2022-09-09T16:39:19.666Z,21.80
2022-09-09T16:41:51.189Z,22.10
2022-09-09T16:44:22.857Z,23.20
2022-09-09T16:46:59.626Z,21.40
2022-09-09T16:49:32.488Z,22.20
2022-09-09T16:52:04.352Z,21.80
2022-09-09T16:54:35.391Z,21.30
2022-09-09T16:57:07.862Z,19.90
2022-09-09T16:59:39.366Z,21.50
2022-09-09T17:02:11.909Z,22.20
2022-09-09T17:04:43.762Z,21.40
2022-09-09T17:07:14.719Z,20.00
2022-09-09T17:09:46.274Z,20.30
2022-09-09T17:12:17.310Z,20.70
2022-09-09T17:14:48.327Z,20.30
2022-09-09T17:17:31.758Z,19.90
2022-09-09T17:20:03.600Z,21.70
2022-09-09T17:22:34.575Z,22.20
2022-09-09T17:25:05.772Z,21.20
2022-09-09T17:27:37.066Z,19.90
2022-09-09T17:30:10.289Z,20.20
2022-09-09T17:32:41.192Z,21.20
2022-09-09T17:35:12.936Z,19.40
2022-09-09T17:37:45.520Z,19.40
2022-09-09T17:40:16.692Z,19.30
2022-09-09T17:42:48.389Z,18.40
2022-09-09T17:45:20.215Z,18.60
2022-09-09T17:47:51.662Z,19.70
2022-09-09T17:50:22.626Z,19.10
2022-09-09T17:52:53.505Z,18.60
2022-09-09T17:55:24.356Z,19.50
2022-09-09T17:57:55.182Z,19.50
2022-09-09T18:00:26.051Z,20.40
2022-09-09T18:02:57.015Z,19.40
2022-09-09T18:05:28.016Z,20.40
2022-09-09T18:07:58.964Z,21.40
2022-09-09T18:10:29.957Z,20.50
2022-09-09T18:13:02.244Z,18.80
2022-09-09T18:15:48.758Z,19.30
2022-09-09T18:18:21.381Z,19.30
2022-09-09T18:21:02.564Z,20.80
2022-09-09T18:23:35.279Z,20.90
2022-09-09T18:26:12.153Z,20.10
2022-09-09T18:28:44.750Z,19.10
2022-09-09T18:31:18.270Z,20.40
2022-09-09T18:33:51.750Z,19.20
2022-09-09T18:36:28.815Z,20.20
2022-09-09T18:39:00.925Z,23.40
2022-09-09T18:41:33.675Z,19.80
2022-09-09T18:44:07.359Z,20.20
2022-09-09T18:46:41.695Z,20.00
2022-09-09T18:49:15.270Z,19.60
2022-09-09T18:51:47.076Z,19.70
2022-09-09T18:54:22.926Z,18.80
2022-09-09T18:56:56.676Z,18.50
2022-09-09T18:59:28.369Z,18.80
2022-09-09T19:01:59.391Z,19.50
2022-09-09T19:04:33.295Z,21.00
2022-09-09T19:07:04.775Z,20.10
2022-09-09T19:09:36.689Z,20.40
2022-09-09T19:12:08.586Z,20.30
2022-09-09T19:14:39.961Z,19.90
2022-09-09T19:17:11.285Z,18.80
2022-09-09T19:19:44.791Z,20.20
2022-09-09T19:22:15.939Z,19.20
2022-09-09T19:24:48.249Z,18.30
2022-09-09T19:27:19.573Z,17.00
2022-09-09T19:29:52.980Z,16.30
2022-09-09T19:32:53.184Z,17.20
2022-09-09T19:35:20.157Z,15.10
2022-09-09T19:37:51.388Z,16.00
2022-09-09T19:40:23.258Z,15.00
2022-09-09T19:42:54.676Z,15.10
2022-09-09T19:45:25.949Z,15.40
2022-09-09T19:47:57.095Z,16.00
2022-09-09T19:50:29.068Z,16.40
2022-09-09T19:53:00.236Z,14.50
2022-09-09T19:55:32.255Z,15.80
2022-09-09T19:58:04.373Z,16.10
2022-09-09T20:00:39.613Z,15.70
2022-09-09T20:03:19.097Z,16.30
2022-09-09T20:05:51.261Z,15.80
2022-09-09T20:08:22.561Z,16.30
2022-09-09T20:10:57.193Z,16.20
2022-09-09T20:13:28.615Z,17.20
2022-09-09T20:16:06.124Z,14.90
2022-09-09T20:18:38.818Z,15.40
2022-09-09T20:21:12.758Z,15.60
2022-09-09T20:23:44.871Z,18.00
2022-09-09T20:26:18.648Z,17.30
2022-09-09T20:28:51.912Z,15.60
2022-09-09T20:31:24.991Z,15.50
2022-09-09T20:33:57.279Z,14.10
2022-09-09T20:36:30.182Z,14.70
2022-09-09T20:39:07.370Z,13.40
2022-09-09T20:41:40.782Z,14.80
2022-09-09T20:44:14.629Z,13.60
2022-09-09T20:46:49.097Z,12.50
2022-09-09T20:49:22.058Z,12.30
2022-09-09T20:51:54.320Z,14.00
2022-09-09T20:54:27.715Z,15.40
2022-09-09T20:57:00.558Z,16.60
2022-09-09T20:59:32.391Z,17.00
2022-09-09T21:02:03.662Z,16.80
2022-09-09T21:04:35.262Z,16.70
2022-09-09T21:07:07.582Z,15.80
2022-09-09T21:09:38.807Z,16.00
2022-09-09T21:12:10.580Z,18.00
2022-09-09T21:14:41.483Z,16.40
2022-09-09T21:17:12.533Z,17.20
2022-09-09T21:19:44.122Z,15.80
2022-09-09T21:22:15.068Z,15.10
2022-09-09T21:24:47.099Z,12.70
2022-09-09T21:27:18.236Z,14.70
2022-09-09T21:29:50.324Z,14.10
2022-09-09T21:32:21.685Z,10.60
2022-09-09T21:34:53.002Z,15.30
2022-09-09T21:37:25.299Z,14.90
2022-09-09T21:39:56.633Z,13.90
2022-09-09T21:42:28.067Z,14.50
2022-09-09T21:44:59.016Z,14.50
2022-09-09T21:47:29.927Z,15.10
2022-09-09T21:50:01.256Z,14.70
2022-09-09T21:52:32.440Z,13.80
2022-09-09T21:55:03.686Z,15.00
2022-09-09T21:57:35.500Z,15.70
2022-09-09T22:00:12.086Z,15.60
2022-09-09T22:02:49.717Z,9.80
2022-09-09T22:05:21.295Z,13.70
2022-09-09T22:07:53.372Z,14.60
2022-09-09T22:10:30.156Z,13.20
2022-09-09T22:13:00.947Z,14.40
2022-09-09T22:15:32.661Z,12.40
2022-09-09T22:18:05.523Z,14.70
2022-09-09T22:20:44.197Z,15.30
2022-09-09T22:23:17.876Z,15.90
2022-09-09T22:25:54.674Z,14.70
2022-09-09T22:28:25.809Z,14.90
2022-09-09T22:30:56.702Z,14.90
2022-09-09T22:33:28.414Z,15.00
2022-09-09T22:35:59.511Z,14.00
2022-09-09T22:38:31.726Z,13.50
2022-09-09T22:41:05.245Z,13.40
2022-09-09T22:43:36.777Z,14.00
2022-09-09T22:46:07.719Z,12.70
2022-09-09T22:48:40.381Z,12.40
2022-09-09T22:51:14.202Z,12.70
2022-09-09T22:53:46.373Z,11.80
2022-09-09T22:56:19.639Z,12.40
2022-09-09T22:58:55.772Z,11.80
2022-09-09T23:01:27.971Z,11.10
2022-09-09T23:04:01.805Z,10.60
2022-09-09T23:06:33.288Z,10.80
2022-09-09T23:09:06.027Z,9.90
2022-09-09T23:11:39.063Z,10.50
2022-09-09T23:14:13.197Z,10.00
2022-09-09T23:16:47.015Z,10.50
2022-09-09T23:19:21.882Z,9.70
2022-09-09T23:21:53.613Z,10.30
2022-09-09T23:24:24.541Z,9.90
2022-09-09T23:26:55.734Z,10.30
2022-09-09T23:29:27.527Z,10.70
2022-09-09T23:31:58.818Z,11.70
2022-09-09T23:34:32.163Z,11.60
2022-09-09T23:37:03.134Z,12.30
2022-09-09T23:39:34.378Z,12.10
2022-09-09T23:42:08.093Z,12.30
2022-09-09T23:44:40.084Z,11.00
2022-09-09T23:47:11.208Z,12.40
2022-09-09T23:49:42.051Z,11.20
2022-09-09T23:52:13.531Z,12.30
2022-09-09T23:54:44.729Z,11.90
2022-09-09T23:57:15.547Z,10.60
2022-09-09T23:59:46.438Z,11.40
